This is the latest recevied weather packets stored in our database for station/object KI5NXU. If no packets are shown the sender has not sent any weather packets the latest 10 day(s).
| Time | Temp. | Humidity | Pressure | Rain* | Wind** | Luminosity | Snow |
|---|---|---|---|---|---|---|---|
| 1777998578 | 28.33° C | 61% | 1004.5 hPa | 0 mm | - | 371 W/m² | - |
| 1777998273 | 27.78° C | 61% | 1004.1 hPa | 0 mm | - | 371 W/m² | - |
| 1777997970 | 27.78° C | 62% | 1004.3 hPa | 0 mm | - | 367 W/m² | - |
| 1777997666 | 27.78° C | 64% | 1004.6 hPa | 0 mm | - | 412 W/m² | - |
| 1777997364 | 27.78° C | 63% | 1004.6 hPa | 0 mm | - | 594 W/m² | - |
| 1777997062 | 27.78° C | 63% | 1004.6 hPa | 0 mm | - | 413 W/m² | - |
| 1777996758 | 27.78° C | 66% | 1004.5 hPa | 0 mm | - | 452 W/m² | - |
| 1777996455 | 27.22° C | 68% | 1004.4 hPa | 0 mm | - | 867 W/m² | - |
| 1777996152 | 27.78° C | 66% | 1004.3 hPa | 0 mm | - | 398 W/m² | - |
| 1777995848 | 27.22° C | 67% | 1003.9 hPa | 0 mm | - | 714 W/m² | - |
| 1777995544 | 27.22° C | 69% | 1004 hPa | 0 mm | - | 426 W/m² | - |
| 1777995241 | 26.67° C | 67% | 1003.9 hPa | 0 mm | - | 734 W/m² | - |
| 1777994938 | 26.67° C | 69% | 1003.8 hPa | 0 mm | - | 628 W/m² | - |
| 1777994636 | 26.67° C | 69% | 1003.9 hPa | 0 mm | - | 568 W/m² | - |
| 1777994335 | 26.11° C | 71% | 1004.1 hPa | 0 mm | - | 500 W/m² | - |
| 1777994033 | 25.56° C | 70% | 1004.1 hPa | 0 mm | - | 503 W/m² | - |
| 1777993730 | 25.56° C | 71% | 1004.1 hPa | 0 mm | - | 264 W/m² | - |
| 1777993427 | 25.56° C | 72% | 1004.2 hPa | 0 mm | - | 237 W/m² | - |
| 1777993126 | 25.56° C | 72% | 1003.9 hPa | 0 mm | - | 266 W/m² | - |
| 1777992825 | 25° C | 72% | 1004 hPa | 0 mm | - | 302 W/m² | - |
| 1777992522 | 25° C | 72% | 1003.8 hPa | 0 mm | - | 363 W/m² | - |
| 1777992221 | 24.44° C | 74% | 1003.8 hPa | 0 mm | - | 174 W/m² | - |
| 1777991917 | 25° C | 74% | 1004 hPa | 0 mm | - | 174 W/m² | - |
| 1777991615 | 25° C | 74% | 1003.9 hPa | 0 mm | - | 267 W/m² | - |
| 1777991312 | 24.44° C | 74% | 1004 hPa | 0 mm | - | 373 W/m² | - |
* Rain latest hour (hover to see other rain measurements)
** Current wind speed in m/s (hover to see current wind gust speed)